Terminal Aerodrome Forecast
Issued by NWS

Home | Current Version | Previous Version | Text Only | Print | Product List | Glossary On
Versions: 1 2 3 4 5 6 7 8 9 10 11 12 13 14 15 16 17 18 19 20 21
275
FTUS43 KEAX 230530
TAFMKC
TAF
KMKC 230530Z 2306/2406 VRB04KT 3SM BR OVC004
     FM231500 VRB05KT 6SM BR BKN011
     FM231800 VRB05KT P6SM BKN040
     FM240300 05006KT P6SM BKN100=

USA.gov is the U.S. government's official web portal to all federal, state and local government web resources and services.